Time;durP1;ratioP1;P1;durP2;ratioP2;P2;SDS_P1;SDS_P2;PMS_P1;PMS_P2;Temp;Humidity;BMP_temperature;BMP_pressure;BME280_temperature;BME280_humidity;BME280_pressure;Samples;Min_cycle;Max_cycle;Signal;HPM_P1;HPM_P2
2024/03/06 00:02:23;;;;;;;15.05;7.57;;;;;;;2.14;51.70;102035.69;5022658;28;20045;-69
2024/03/06 00:04:48;;;;;;;15.43;8.18;;;;;;;2.26;51.48;102034.13;5021522;28;20032;-68
2024/03/06 00:07:15;;;;;;;13.13;7.00;;;;;;;2.25;51.48;102035.84;5019132;28;20045;-68
2024/03/06 00:09:40;;;;;;;14.43;7.75;;;;;;;2.25;51.74;102042.72;5032151;28;20629;-68
2024/03/06 00:12:06;;;;;;;16.73;7.43;;;;;;;2.25;51.36;102047.88;5038976;28;20087;-66
2024/03/06 00:14:31;;;;;;;19.17;7.72;;;;;;;2.36;51.24;102054.03;5018251;28;20055;-66
2024/03/06 00:16:57;;;;;;;14.77;8.32;;;;;;;2.25;51.62;102051.31;5025203;28;20541;-67
2024/03/06 00:19:23;;;;;;;14.07;6.50;;;;;;;2.24;52.02;102047.00;5019718;28;20079;-66
2024/03/06 00:21:49;;;;;;;10.90;6.38;;;;;;;2.28;51.56;102053.91;5022763;28;20036;-66
2024/03/06 00:24:15;;;;;;;17.90;6.97;;;;;;;2.42;51.27;102055.81;5015585;28;20044;-66
2024/03/06 00:26:44;;;;;;;12.63;7.43;;;;;;;2.24;51.42;102062.50;5023165;28;20139;-66
2024/03/06 00:29:11;;;;;;;16.27;8.55;;;;;;;2.27;51.17;102062.53;5031254;28;20450;-67
2024/03/06 00:31:42;;;;;;;16.30;6.55;;;;;;;2.34;51.07;102063.47;5017659;28;20029;-67
2024/03/06 00:34:07;;;;;;;20.00;8.68;;;;;;;2.38;51.35;102072.09;5029183;28;20068;-67
2024/03/06 00:36:33;;;;;;;15.88;7.38;;;;;;;2.45;51.15;102068.78;5022427;28;20101;-66
2024/03/06 00:38:59;;;;;;;15.32;8.00;;;;;;;2.54;50.87;102066.31;5035410;28;20587;-72
2024/03/06 00:41:24;;;;;;;18.65;8.30;;;;;;;2.48;50.86;102061.94;5034068;28;20421;-71
2024/03/06 00:43:57;;;;;;;17.20;9.07;;;;;;;2.42;51.47;102066.13;5027805;28;20039;-70
2024/03/06 00:46:23;;;;;;;15.10;7.88;;;;;;;2.36;51.44;102061.78;5026125;28;20041;-72
2024/03/06 00:48:48;;;;;;;14.20;8.27;;;;;;;2.26;51.63;102060.78;5064501;28;20054;-73
2024/03/06 00:51:14;;;;;;;19.05;8.90;;;;;;;2.36;51.58;102066.94;5025374;28;20048;-72
2024/03/06 00:53:39;;;;;;;15.10;8.68;;;;;;;2.30;51.81;102064.28;5024157;28;20047;-71
2024/03/06 00:56:06;;;;;;;19.95;7.82;;;;;;;2.27;51.99;102067.69;5007721;28;20052;-71
2024/03/06 00:58:31;;;;;;;14.80;8.43;;;;;;;2.19;52.09;102068.41;5007636;28;20068;-71
2024/03/06 01:00:58;;;;;;;14.55;8.60;;;;;;;2.25;52.40;102071.09;5015485;28;20131;-71
2024/03/06 01:03:24;;;;;;;20.33;9.77;;;;;;;2.25;51.96;102064.22;5004700;28;20040;-71
2024/03/06 01:05:50;;;;;;;15.27;8.30;;;;;;;2.19;52.26;102074.44;5030552;28;20159;-70
2024/03/06 01:08:17;;;;;;;23.90;8.73;;;;;;;2.29;51.74;102078.91;5024776;28;20066;-69
2024/03/06 01:10:43;;;;;;;13.50;7.57;;;;;;;2.25;51.72;102073.66;5024490;28;20058;-68
2024/03/06 01:13:10;;;;;;;20.02;7.90;;;;;;;2.21;52.25;102080.50;5003585;28;20029;-68
2024/03/06 01:15:39;;;;;;;17.35;8.52;;;;;;;2.16;51.97;102084.72;5014624;28;21170;-68
2024/03/06 01:18:05;;;;;;;17.40;8.13;;;;;;;2.25;51.96;102087.44;5010317;28;20817;-68
2024/03/06 01:20:30;;;;;;;18.42;9.73;;;;;;;2.07;52.10;102082.00;5022366;28;20609;-67
2024/03/06 01:22:55;;;;;;;15.48;8.25;;;;;;;2.06;52.41;102082.84;5009693;28;20044;-68
2024/03/06 01:25:24;;;;;;;19.05;8.07;;;;;;;2.14;51.59;102086.41;5020946;28;20672;-69
2024/03/06 01:27:49;;;;;;;16.13;8.10;;;;;;;2.25;51.55;102091.72;5027092;28;20037;-71
2024/03/06 01:30:15;;;;;;;16.10;7.38;;;;;;;2.26;51.97;102093.44;5029321;28;20535;-73
2024/03/06 01:32:41;;;;;;;17.63;8.63;;;;;;;2.39;51.50;102094.50;5010688;28;20715;-70
2024/03/06 01:35:07;;;;;;;13.90;7.25;;;;;;;2.12;51.80;102098.41;5015190;28;20040;-70
2024/03/06 01:37:32;;;;;;;20.20;9.18;;;;;;;2.18;51.98;102087.34;5018095;28;20552;-73
2024/03/06 01:39:58;;;;;;;18.83;8.10;;;;;;;2.14;51.68;102086.41;5026035;28;20033;-73
2024/03/06 01:42:25;;;;;;;15.55;7.25;;;;;;;1.97;51.90;102087.88;5021113;28;20083;-74
2024/03/06 01:44:51;;;;;;;21.27;7.57;;;;;;;1.97;52.04;102085.28;5026791;28;20115;-72
2024/03/06 01:47:16;;;;;;;15.63;7.60;;;;;;;2.20;51.52;102086.50;5027568;28;20135;-67
2024/03/06 01:49:42;;;;;;;20.25;9.60;;;;;;;2.21;51.48;102087.38;5016773;28;20041;-66
2024/03/06 01:52:11;;;;;;;14.60;7.97;;;;;;;2.20;51.57;102094.25;5027922;28;20036;-66
2024/03/06 01:54:40;;;;;;;16.40;7.30;;;;;;;2.14;51.57;102087.28;5014934;28;20032;-68
2024/03/06 01:57:07;;;;;;;17.10;7.80;;;;;;;2.08;51.89;102091.47;5030932;28;20040;-68
2024/03/06 01:59:35;;;;;;;16.00;8.88;;;;;;;2.14;51.52;102087.28;5022145;28;20494;-66
2024/03/06 02:02:01;;;;;;;16.40;7.70;;;;;;;1.93;52.12;102094.72;5012059;28;20025;-65
2024/03/06 02:04:28;;;;;;;17.98;8.02;;;;;;;2.17;51.47;102090.75;5004303;28;20029;-69
2024/03/06 02:06:54;;;;;;;18.08;7.47;;;;;;;2.22;51.18;102092.56;5010204;28;20040;-67
2024/03/06 02:09:19;;;;;;;15.27;8.25;;;;;;;2.17;51.36;102091.59;5013679;28;20047;-68
2024/03/06 02:11:45;;;;;;;13.93;8.68;;;;;;;2.14;51.57;102086.41;5016481;28;20531;-68
2024/03/06 02:14:11;;;;;;;18.13;8.65;;;;;;;2.10;51.31;102098.38;5027580;28;20694;-69
2024/03/06 02:16:38;;;;;;;17.90;7.47;;;;;;;2.11;51.31;102099.28;5026364;28;20043;-67
2024/03/06 02:19:04;;;;;;;20.63;8.65;;;;;;;2.16;50.81;102095.03;5027553;28;20075;-64
2024/03/06 02:21:30;;;;;;;17.48;8.13;;;;;;;2.09;51.24;102098.38;5005738;28;20041;-65
2024/03/06 02:23:56;;;;;;;16.35;8.32;;;;;;;2.02;51.06;102107.75;5005176;28;20584;-64
2024/03/06 02:26:22;;;;;;;15.45;7.43;;;;;;;2.00;51.24;102108.53;5005372;28;20287;-66
2024/03/06 02:28:49;;;;;;;14.98;7.35;;;;;;;2.24;50.73;102108.94;5011699;28;20199;-64
2024/03/06 02:31:19;;;;;;;17.45;7.28;;;;;;;2.07;51.04;102110.38;5007263;28;20040;-64
2024/03/06 02:33:47;;;;;;;12.82;6.55;;;;;;;1.98;50.84;102110.25;5007568;28;20455;-64
2024/03/06 02:36:13;;;;;;;17.88;8.45;;;;;;;2.08;50.88;102112.09;5024814;28;20051;-64
2024/03/06 02:38:40;;;;;;;14.40;7.40;;;;;;;2.12;50.48;102119.91;5026308;28;20025;-66
2024/03/06 02:41:08;;;;;;;11.50;6.97;;;;;;;2.02;50.45;102114.56;5023216;28;20705;-65
2024/03/06 02:43:33;;;;;;;15.00;6.93;;;;;;;1.93;50.43;102113.63;5020199;28;20162;-66
2024/03/06 02:46:07;;;;;;;17.30;6.78;;;;;;;2.13;50.30;102107.88;5022944;28;20033;-67
2024/03/06 02:48:33;;;;;;;11.50;6.95;;;;;;;2.16;50.25;102110.53;5022703;28;20028;-64
2024/03/06 02:50:59;;;;;;;17.58;7.47;;;;;;;2.10;50.41;102110.41;5021161;28;20102;-66
2024/03/06 02:53:30;;;;;;;11.30;7.07;;;;;;;1.97;50.91;102114.50;5028339;28;20032;-64
2024/03/06 02:55:56;;;;;;;14.67;7.87;;;;;;;1.91;50.92;102106.69;5020830;28;20044;-64
2024/03/06 02:58:22;;;;;;;18.88;8.05;;;;;;;2.01;51.04;102097.38;5027281;28;20080;-65
2024/03/06 03:00:47;;;;;;;14.38;7.25;;;;;;;2.18;50.42;102092.50;5016129;28;20049;-64
2024/03/06 03:03:13;;;;;;;20.33;8.90;;;;;;;2.24;50.28;102096.03;5029442;28;20052;-64
2024/03/06 03:05:39;;;;;;;15.60;7.43;;;;;;;2.05;50.85;102097.47;5016343;28;20108;-74
2024/03/06 03:08:05;;;;;;;10.70;5.78;;;;;;;2.14;50.68;102094.16;5033769;28;20056;-68
2024/03/06 03:10:31;;;;;;;16.88;7.10;;;;;;;2.06;50.81;102098.31;5027473;28;20029;-68
2024/03/06 03:12:56;;;;;;;16.35;7.75;;;;;;;2.13;51.13;102094.97;5020423;28;20048;-68
2024/03/06 03:15:22;;;;;;;16.40;7.50;;;;;;;2.15;51.24;102101.03;5026872;28;20040;-68
2024/03/06 03:17:55;;;;;;;21.90;8.77;;;;;;;1.91;51.75;102107.56;5019376;28;20134;-67
2024/03/06 03:20:20;;;;;;;14.93;7.72;;;;;;;1.92;51.57;102101.56;5032786;28;20032;-68
2024/03/06 03:22:46;;;;;;;15.95;7.95;;;;;;;2.10;51.19;102105.25;5014793;28;20118;-69
2024/03/06 03:25:12;;;;;;;14.88;8.65;;;;;;;2.08;51.59;102101.78;5025764;28;20510;-69
2024/03/06 03:27:43;;;;;;;14.95;7.85;;;;;;;1.96;51.77;102114.50;5022375;28;20037;-70
2024/03/06 03:30:11;;;;;;;20.40;9.07;;;;;;;2.11;51.45;102107.00;5029394;28;20182;-70
2024/03/06 03:32:37;;;;;;;16.15;8.20;;;;;;;2.15;51.67;102111.34;5007753;28;20582;-71
2024/03/06 03:35:08;;;;;;;18.27;9.73;;;;;;;1.93;52.06;102107.59;5033347;28;20375;-70
2024/03/06 03:37:36;;;;;;;17.98;8.73;;;;;;;2.08;51.59;102114.69;5021688;28;20048;-73
2024/03/06 03:40:02;;;;;;;20.25;7.78;;;;;;;1.88;52.44;102120.38;5028919;28;20032;-72
2024/03/06 03:42:28;;;;;;;19.40;9.23;;;;;;;2.04;52.24;102116.38;5025052;28;20040;-73
2024/03/06 03:44:53;;;;;;;22.02;9.52;;;;;;;2.06;52.24;102117.22;5001711;28;20717;-70
2024/03/06 03:47:19;;;;;;;20.30;9.85;;;;;;;2.05;52.35;102119.81;5014948;28;20052;-73
2024/03/06 03:49:46;;;;;;;21.48;8.48;;;;;;;1.98;52.55;102120.56;5012270;28;20029;-71
2024/03/06 03:52:15;;;;;;;19.13;9.35;;;;;;;2.03;52.17;102134.38;5026777;28;20040;-66
2024/03/06 03:54:41;;;;;;;19.02;8.05;;;;;;;2.14;51.79;102132.84;5022958;28;20252;-64
2024/03/06 03:57:08;;;;;;;23.08;9.70;;;;;;;1.97;52.18;102134.28;5025518;28;20070;-63
2024/03/06 03:59:34;;;;;;;21.90;9.57;;;;;;;1.81;52.93;102128.88;5031461;28;20040;-67
2024/03/06 04:02:04;;;;;;;17.60;8.98;;;;;;;2.00;52.25;102134.31;5021973;28;20063;-64
2024/03/06 04:04:29;;;;;;;17.15;9.68;;;;;;;2.07;52.31;102133.59;5028301;28;20025;-65
2024/03/06 04:06:55;;;;;;;18.20;9.18;;;;;;;1.82;52.59;102132.31;5025812;28;21055;-66
2024/03/06 04:09:20;;;;;;;18.80;8.52;;;;;;;1.62;52.95;102142.31;5029541;28;20040;-67
2024/03/06 04:11:51;;;;;;;25.13;10.93;;;;;;;1.82;52.85;102140.03;5022761;28;20048;-65
2024/03/06 04:14:17;;;;;;;21.80;9.48;;;;;;;1.93;52.65;102129.09;5027431;28;20651;-65
2024/03/06 04:16:42;;;;;;;18.13;9.43;;;;;;;1.94;52.48;102135.97;5025390;28;20037;-67
2024/03/06 04:19:08;;;;;;;26.42;9.65;;;;;;;1.85;52.72;102138.41;5032044;28;20035;-67
2024/03/06 04:21:34;;;;;;;19.73;10.00;;;;;;;1.84;52.88;102144.41;5032307;28;20040;-67
2024/03/06 04:23:59;;;;;;;22.05;9.30;;;;;;;1.57;53.31;102146.50;5023022;28;21565;-67
2024/03/06 04:26:24;;;;;;;21.27;9.02;;;;;;;1.90;52.91;102148.78;5029068;28;20035;-68
2024/03/06 04:28:50;;;;;;;18.75;9.52;;;;;;;1.83;53.33;102147.81;5028184;28;20092;-68
2024/03/06 04:31:15;;;;;;;19.58;9.05;;;;;;;1.82;53.37;102140.94;5033078;28;20167;-68
2024/03/06 04:33:42;;;;;;;23.33;9.68;;;;;;;1.72;53.94;102147.63;5021279;28;20913;-67
2024/03/06 04:36:08;;;;;;;18.92;10.43;;;;;;;1.77;53.84;102150.28;5008986;28;20181;-68
2024/03/06 04:38:34;;;;;;;20.60;9.85;;;;;;;1.76;53.95;102156.28;5003783;28;20219;-67
2024/03/06 04:40:59;;;;;;;20.55;10.10;;;;;;;1.69;54.28;102155.31;4990123;28;20037;-66
2024/03/06 04:43:25;;;;;;;18.73;9.63;;;;;;;1.76;54.32;102171.75;5015775;28;20044;-66
2024/03/06 04:45:50;;;;;;;18.17;9.00;;;;;;;1.70;54.08;102169.94;5007834;28;20036;-72
2024/03/06 04:48:21;;;;;;;22.92;9.32;;;;;;;1.75;53.95;102170.00;5032281;28;20159;-73
2024/03/06 04:50:47;;;;;;;20.45;10.70;;;;;;;1.94;53.39;102174.63;5014127;28;20049;-73
2024/03/06 04:53:12;;;;;;;18.27;9.30;;;;;;;1.84;53.97;102183.09;5027612;28;20095;-70
2024/03/06 04:55:38;;;;;;;21.60;10.60;;;;;;;1.68;54.37;102188.78;5028530;28;20055;-68
2024/03/06 04:58:03;;;;;;;19.45;8.25;;;;;;;1.96;53.27;102184.13;5022362;28;20059;-72
2024/03/06 05:00:29;;;;;;;20.67;8.75;;;;;;;1.63;54.08;102190.41;5027450;28;20708;-71
2024/03/06 05:02:55;;;;;;;16.50;8.98;;;;;;;1.77;53.77;102196.69;5018543;28;20572;-72
2024/03/06 05:05:22;;;;;;;16.30;7.78;;;;;;;1.79;53.98;102195.00;5029332;28;20059;-72
2024/03/06 05:07:51;;;;;;;17.92;8.85;;;;;;;1.85;53.79;102195.13;5039924;28;20068;-73
2024/03/06 05:10:17;;;;;;;17.48;8.38;;;;;;;1.69;54.68;102195.69;5032387;28;20540;-73
2024/03/06 05:12:44;;;;;;;17.65;9.07;;;;;;;1.75;54.40;102200.94;5033744;28;20036;-72
2024/03/06 05:15:19;;;;;;;15.15;7.75;;;;;;;1.69;54.39;102190.53;5030107;28;20122;-73
2024/03/06 05:17:45;;;;;;;16.58;8.93;;;;;;;1.73;54.34;102203.50;5028594;28;20040;-71
2024/03/06 05:20:10;;;;;;;17.65;9.15;;;;;;;1.63;54.60;102195.56;5029403;28;20494;-71
2024/03/06 05:22:36;;;;;;;18.45;8.65;;;;;;;1.63;54.88;102203.31;5027811;28;20033;-71
2024/03/06 05:25:04;;;;;;;15.90;6.80;;;;;;;1.56;54.99;102204.91;5022962;28;20498;-68
2024/03/06 05:27:29;;;;;;;15.45;8.95;;;;;;;1.61;55.23;102205.84;5029910;28;20033;-71
2024/03/06 05:29:55;;;;;;;16.63;8.02;;;;;;;1.47;55.50;102213.31;5027531;28;20074;-71
2024/03/06 05:32:21;;;;;;;16.60;7.78;;;;;;;1.76;54.64;102212.13;5017364;28;20060;-70
2024/03/06 05:34:46;;;;;;;19.48;9.13;;;;;;;1.68;54.80;102224.88;5030244;28;20147;-71
2024/03/06 05:37:12;;;;;;;17.35;8.13;;;;;;;1.68;54.83;102217.13;5022693;28;20041;-69
2024/03/06 05:39:38;;;;;;;19.60;9.98;;;;;;;1.48;55.48;102222.81;5035338;28;20036;-70
2024/03/06 05:42:06;;;;;;;22.55;9.93;;;;;;;1.51;55.40;102228.00;5020478;28;20037;-73
2024/03/06 05:44:32;;;;;;;29.60;10.05;;;;;;;1.61;55.21;102218.72;5027330;28;20025;-68
2024/03/06 05:47:02;;;;;;;17.13;9.95;;;;;;;1.68;55.05;102227.44;5019063;28;20036;-68
2024/03/06 05:49:29;;;;;;;16.50;8.63;;;;;;;1.76;54.86;102228.47;5031368;28;20040;-71
2024/03/06 05:51:55;;;;;;;15.98;9.05;;;;;;;1.60;55.33;102235.06;5022912;28;20032;-72
2024/03/06 05:54:21;;;;;;;17.15;8.05;;;;;;;1.62;55.43;102235.94;5032345;28;20520;-73
2024/03/06 05:56:53;;;;;;;18.65;8.75;;;;;;;1.73;54.94;102234.44;5026184;28;20573;-72
2024/03/06 05:59:21;;;;;;;17.75;8.02;;;;;;;1.75;54.93;102237.03;4997114;28;20041;-71
2024/03/06 06:01:47;;;;;;;17.27;8.90;;;;;;;1.82;54.82;102238.00;5007780;28;20037;-69
2024/03/06 06:04:14;;;;;;;19.45;8.40;;;;;;;1.82;54.65;102244.06;5015730;28;20369;-68
2024/03/06 06:06:39;;;;;;;17.77;8.25;;;;;;;1.78;54.96;102251.72;5027677;28;20051;-68
2024/03/06 06:09:05;;;;;;;17.15;8.88;;;;;;;1.75;54.90;102247.34;5018302;28;20070;-70
2024/03/06 06:11:32;;;;;;;15.27;9.13;;;;;;;1.75;55.16;102254.22;5028101;28;20029;-70
2024/03/06 06:14:00;;;;;;;15.73;8.52;;;;;;;1.68;55.14;102260.97;5036370;28;20513;-75
2024/03/06 06:16:25;;;;;;;16.60;8.65;;;;;;;1.85;54.73;102266.44;5028736;28;20032;-71
2024/03/06 06:18:51;;;;;;;14.75;7.07;;;;;;;1.80;54.67;102268.94;5025265;28;20537;-71
2024/03/06 06:21:16;;;;;;;18.52;8.57;;;;;;;1.89;54.69;102266.53;5021681;28;20142;-70
2024/03/06 06:23:42;;;;;;;19.63;8.48;;;;;;;1.90;54.30;102267.38;5032099;28;20041;-73
2024/03/06 06:26:11;;;;;;;20.95;8.77;;;;;;;2.03;54.26;102268.50;5012952;28;20049;-66
2024/03/06 06:28:37;;;;;;;14.82;8.23;;;;;;;1.88;54.68;102264.78;5027859;28;20111;-66
2024/03/06 06:31:04;;;;;;;13.30;7.53;;;;;;;1.84;54.48;102275.91;5019689;28;20054;-68
2024/03/06 06:33:32;;;;;;;20.40;7.88;;;;;;;1.86;54.66;102278.47;5014970;28;20409;-72
2024/03/06 06:35:58;;;;;;;16.77;8.82;;;;;;;1.77;54.96;102278.31;5023187;28;20040;-74
2024/03/06 06:38:23;;;;;;;16.02;8.00;;;;;;;1.72;54.76;102275.66;5026772;28;20044;-68
2024/03/06 06:40:49;;;;;;;15.75;7.35;;;;;;;1.97;54.12;102289.00;5024067;28;20044;-67
2024/03/06 06:43:15;;;;;;;15.10;7.10;;;;;;;1.81;54.51;102286.13;5015872;28;20040;-67
2024/03/06 06:45:41;;;;;;;23.52;7.85;;;;;;;1.77;54.86;102286.91;5014320;28;20032;-72
2024/03/06 06:48:08;;;;;;;20.67;8.40;;;;;;;1.85;54.48;102303.41;5013300;28;20051;-69
2024/03/06 06:50:35;;;;;;;13.20;7.47;;;;;;;1.90;54.38;102298.34;5005676;28;20537;-67
2024/03/06 06:53:01;;;;;;;19.58;7.53;;;;;;;1.95;54.23;102294.13;5000641;28;20189;-71
2024/03/06 06:55:26;;;;;;;15.95;7.80;;;;;;;1.92;54.20;102304.38;5003763;28;20822;-67
2024/03/06 06:57:55;;;;;;;16.95;7.20;;;;;;;1.97;54.01;102312.22;5005190;28;20722;-71
2024/03/06 07:00:22;;;;;;;16.33;8.30;;;;;;;1.95;54.57;102309.59;4991688;28;20066;-69
2024/03/06 07:02:48;;;;;;;14.13;7.28;;;;;;;2.08;54.29;102313.28;4995783;28;21127;-67
2024/03/06 07:05:15;;;;;;;16.33;6.95;;;;;;;2.05;54.26;102319.25;4983646;28;20044;-70
2024/03/06 07:07:40;;;;;;;16.98;8.63;;;;;;;2.04;53.92;102325.28;5024148;28;20044;-69
2024/03/06 07:10:11;;;;;;;17.60;8.27;;;;;;;2.14;53.46;102329.75;5013212;28;20029;-67
2024/03/06 07:12:37;;;;;;;16.95;7.22;;;;;;;1.99;53.72;102324.28;5019875;28;20182;-69
2024/03/06 07:15:03;;;;;;;13.20;7.70;;;;;;;2.07;53.66;102324.44;4988178;28;21739;-70
2024/03/06 07:17:32;;;;;;;13.75;7.95;;;;;;;1.69;54.32;102329.72;5014615;28;20064;-69
2024/03/06 07:19:58;;;;;;;11.45;6.75;;;;;;;1.75;53.64;102324.66;5019029;28;20048;-68
2024/03/06 07:22:26;;;;;;;15.05;7.07;;;;;;;1.79;53.87;102335.94;5025758;28;20065;-68
2024/03/06 07:24:51;;;;;;;12.55;7.30;;;;;;;1.72;53.72;102335.78;5025672;28;20990;-76
2024/03/06 07:27:19;;;;;;;11.93;6.95;;;;;;;1.70;53.95;102341.75;5024055;28;20037;-74
2024/03/06 07:29:44;;;;;;;12.15;6.72;;;;;;;1.88;53.69;102343.84;5024254;28;20079;-69
2024/03/06 07:32:10;;;;;;;19.60;7.40;;;;;;;2.09;53.14;102349.44;5014341;28;20033;-68
2024/03/06 07:34:36;;;;;;;15.40;7.53;;;;;;;1.97;52.97;102350.91;5029025;28;20032;-69
2024/03/06 07:37:02;;;;;;;13.00;6.15;;;;;;;2.09;52.71;102353.72;5034658;27;20059;-68
2024/03/06 07:39:28;;;;;;;16.40;7.13;;;;;;;2.11;52.35;102349.47;5036378;28;20036;-74
2024/03/06 07:41:54;;;;;;;23.20;8.02;;;;;;;2.25;52.10;102352.28;5026345;28;20048;-71
2024/03/06 07:44:20;;;;;;;14.98;7.15;;;;;;;2.04;52.47;102361.38;5020324;28;20394;-68
2024/03/06 07:46:46;;;;;;;13.43;5.80;;;;;;;2.33;51.80;102363.59;5028754;28;20044;-67
2024/03/06 07:49:12;;;;;;;17.67;6.53;;;;;;;2.21;51.75;102365.97;5019800;28;20092;-67
2024/03/06 07:51:37;;;;;;;12.68;7.00;;;;;;;2.09;51.97;102366.63;5027354;28;20028;-69
2024/03/06 07:54:04;;;;;;;17.88;7.80;;;;;;;2.14;51.95;102371.00;5006338;28;20055;-70
2024/03/06 07:56:33;;;;;;;13.38;6.53;;;;;;;2.48;51.25;102365.59;5018600;28;20193;-68
2024/03/06 07:59:00;;;;;;;12.32;6.13;;;;;;;2.76;50.64;102372.97;5017685;28;20563;-73
2024/03/06 08:01:28;;;;;;;12.73;6.03;;;;;;;3.59;48.90;102369.06;5004060;28;20155;-73
2024/03/06 08:03:55;;;;;;;14.40;5.85;;;;;;;4.60;46.51;102368.44;5016761;28;20286;-73
2024/03/06 08:06:21;;;;;;;12.02;6.07;;;;;;;5.36;44.76;102365.56;5005000;28;20237;-70
2024/03/06 08:08:47;;;;;;;9.35;5.32;;;;;;;6.43;41.98;102366.84;5009891;28;20542;-75
2024/03/06 08:11:14;;;;;;;11.75;7.22;;;;;;;6.48;40.92;102370.31;5005242;28;20117;-73
2024/03/06 08:13:40;;;;;;;8.60;5.30;;;;;;;6.81;40.43;102377.25;5011924;28;20114;-72
2024/03/06 08:16:08;;;;;;;8.65;5.60;;;;;;;6.11;41.04;102378.00;5000812;28;20067;-71
2024/03/06 08:18:34;;;;;;;10.10;5.35;;;;;;;5.10;43.41;102380.09;5027753;28;20054;-67
2024/03/06 08:21:00;;;;;;;10.90;5.97;;;;;;;4.86;44.19;102391.13;5028635;28;20098;-68
2024/03/06 08:23:27;;;;;;;15.07;6.20;;;;;;;4.10;45.86;102398.16;5016843;28;20100;-68
2024/03/06 08:25:52;;;;;;;9.90;5.43;;;;;;;4.06;46.31;102406.72;5027288;28;20035;-71
2024/03/06 08:28:18;;;;;;;11.25;4.70;;;;;;;4.07;46.06;102405.00;4991359;28;20594;-68
2024/03/06 08:30:44;;;;;;;14.60;6.53;;;;;;;3.75;46.81;102408.06;4982564;28;20128;-68
2024/03/06 08:33:10;;;;;;;10.93;5.53;;;;;;;3.88;46.48;102406.50;5006618;28;20043;-66
2024/03/06 08:35:40;;;;;;;17.27;6.15;;;;;;;3.66;46.85;102406.22;5022215;28;20040;-68
2024/03/06 08:38:06;;;;;;;9.10;5.22;;;;;;;3.97;47.34;102420.41;5026520;28;20120;-69
2024/03/06 08:40:32;;;;;;;11.63;6.00;;;;;;;4.19;46.86;102420.69;5008156;28;20031;-69
2024/03/06 08:42:58;;;;;;;9.07;5.10;;;;;;;4.78;45.48;102415.22;5010503;28;20047;-69
2024/03/06 08:45:23;;;;;;;8.23;5.05;;;;;;;5.35;44.21;102418.31;5020241;28;20036;-69
2024/03/06 08:47:55;;;;;;;10.10;5.20;;;;;;;5.46;43.47;102418.38;5028147;28;20090;-69
2024/03/06 08:50:21;;;;;;;9.23;6.00;;;;;;;4.99;44.78;102426.69;5021124;28;20048;-69
2024/03/06 08:52:46;;;;;;;11.93;6.30;;;;;;;4.06;45.46;102431.75;5035672;27;20041;-70
2024/03/06 08:55:12;;;;;;;10.75;4.80;;;;;;;4.04;46.24;102429.13;5001707;28;20119;-70
2024/03/06 08:57:38;;;;;;;10.85;5.72;;;;;;;3.56;47.85;102425.03;5015684;28;20040;-69
2024/03/06 09:00:10;;;;;;;10.13;6.60;;;;;;;4.01;47.22;102432.53;5026434;28;20032;-70
2024/03/06 09:02:38;;;;;;;10.75;6.65;;;;;;;3.68;47.42;102435.56;5018338;28;20033;-69
2024/03/06 09:05:05;;;;;;;17.58;7.70;;;;;;;3.92;47.59;102429.00;5018386;28;20037;-70
2024/03/06 09:07:31;;;;;;;22.40;9.50;;;;;;;4.47;46.08;102437.38;5013775;28;20051;-69
2024/03/06 09:09:56;;;;;;;15.35;7.57;;;;;;;4.22;46.06;102441.41;5003424;28;20036;-70
2024/03/06 09:12:22;;;;;;;13.60;6.32;;;;;;;4.19;46.07;102438.81;5009848;28;20128;-70
2024/03/06 09:14:48;;;;;;;72.05;26.45;;;;;;;4.20;46.60;102435.34;5026472;28;20044;-69
2024/03/06 09:17:14;;;;;;;19.10;8.10;;;;;;;4.77;45.88;102444.59;5027628;28;20137;-70
2024/03/06 09:19:40;;;;;;;11.15;6.20;;;;;;;4.24;45.29;102442.28;5006780;28;20044;-71
2024/03/06 09:22:07;;;;;;;13.75;7.20;;;;;;;4.04;46.04;102443.78;5016001;28;20044;-70
2024/03/06 09:24:33;;;;;;;14.15;6.72;;;;;;;4.10;46.22;102456.81;5018441;28;20037;-69
2024/03/06 09:26:58;;;;;;;11.70;6.18;;;;;;;3.84;46.45;102454.72;5027571;28;20037;-71
2024/03/06 09:29:24;;;;;;;10.05;5.85;;;;;;;3.77;46.57;102450.34;5000115;28;21191;-70
2024/03/06 09:31:49;;;;;;;12.93;7.35;;;;;;;3.59;46.48;102446.63;5024916;28;21060;-69
2024/03/06 09:34:16;;;;;;;14.07;6.70;;;;;;;3.66;47.05;102451.91;5025312;28;20123;-70
2024/03/06 09:36:46;;;;;;;14.65;5.38;;;;;;;4.25;46.22;102459.56;5013313;28;20179;-70
2024/03/06 09:39:12;;;;;;;15.48;6.70;;;;;;;4.04;45.96;102457.59;5012258;28;20826;-70
2024/03/06 09:41:41;;;;;;;10.93;5.75;;;;;;;3.83;46.06;102453.00;4995432;28;20706;-70
2024/03/06 09:44:07;;;;;;;23.83;9.48;;;;;;;4.14;45.68;102450.78;5018470;28;20542;-71
2024/03/06 09:46:35;;;;;;;12.20;6.88;;;;;;;4.06;46.15;102457.63;5017299;28;20090;-67
2024/03/06 09:49:02;;;;;;;10.88;6.50;;;;;;;4.29;45.30;102450.13;5013311;28;20135;-68
2024/03/06 09:51:28;;;;;;;12.50;6.85;;;;;;;4.69;44.59;102456.59;5010547;28;20228;-68
2024/03/06 09:53:54;;;;;;;12.93;6.00;;;;;;;4.72;45.16;102461.81;5030719;28;20441;-67
2024/03/06 09:56:20;;;;;;;12.77;6.45;;;;;;;4.98;44.45;102458.63;5022963;28;20036;-68
2024/03/06 09:58:46;;;;;;;15.02;7.00;;;;;;;5.00;43.79;102462.94;5024307;28;20444;-67
2024/03/06 10:01:14;;;;;;;12.63;6.32;;;;;;;5.27;43.40;102460.59;5024952;28;20049;-70
2024/03/06 10:03:41;;;;;;;9.27;5.68;;;;;;;5.10;43.07;102469.09;5017813;28;20103;-69
2024/03/06 10:06:15;;;;;;;15.38;7.18;;;;;;;5.25;43.01;102469.19;5028141;28;20040;-69
2024/03/06 10:08:46;;;;;;;10.10;5.72;;;;;;;5.48;42.90;102470.22;5020957;28;20067;-69
2024/03/06 10:11:12;;;;;;;20.30;8.30;;;;;;;5.11;43.17;102469.97;5021963;28;20052;-69
2024/03/06 10:13:37;;;;;;;9.32;6.45;;;;;;;5.54;42.73;102465.09;5019228;28;20036;-71
2024/03/06 10:16:08;;;;;;;13.68;7.40;;;;;;;5.55;42.25;102467.72;5031047;28;20128;-70
2024/03/06 10:18:34;;;;;;;12.73;6.50;;;;;;;5.38;42.03;102470.16;5014945;28;20032;-70
2024/03/06 10:21:00;;;;;;;12.93;7.57;;;;;;;5.77;41.88;102473.00;5027645;28;20110;-69
2024/03/06 10:23:29;;;;;;;12.60;6.47;;;;;;;5.54;41.43;102476.31;5016234;28;20041;-69
2024/03/06 10:25:54;;;;;;;12.55;7.00;;;;;;;5.53;41.74;102468.56;5007733;28;20047;-70
2024/03/06 10:28:23;;;;;;;13.77;6.35;;;;;;;5.56;42.22;102473.75;5000244;28;20043;-69
2024/03/06 10:30:50;;;;;;;11.63;6.63;;;;;;;5.58;42.02;102478.09;4996657;28;20051;-69
2024/03/06 10:33:21;;;;;;;12.93;7.25;;;;;;;5.81;42.09;102483.41;4998152;28;20196;-69
2024/03/06 10:35:51;;;;;;;14.63;6.35;;;;;;;5.62;41.84;102485.03;5001110;28;20135;-69
2024/03/06 10:38:21;;;;;;;12.73;6.70;;;;;;;5.45;41.89;102489.22;5001822;28;20037;-67
2024/03/06 10:40:49;;;;;;;10.85;6.05;;;;;;;5.08;42.29;102488.94;5002566;28;20746;-68
2024/03/06 10:43:17;;;;;;;14.73;5.97;;;;;;;5.56;42.00;102490.19;5009473;28;20218;-66
2024/03/06 10:45:51;;;;;;;11.73;6.43;;;;;;;6.04;41.18;102490.47;5008220;28;20066;-69
2024/03/06 10:48:18;;;;;;;12.60;6.13;;;;;;;5.60;42.82;102486.75;4992332;28;20047;-67
2024/03/06 10:50:46;;;;;;;10.60;6.75;;;;;;;5.72;42.15;102485.09;4995332;28;22175;-69
2024/03/06 10:53:16;;;;;;;16.48;6.47;;;;;;;5.88;41.80;102482.59;5023440;28;20036;-70
2024/03/06 10:55:45;;;;;;;11.15;6.32;;;;;;;5.85;41.64;102486.91;5018617;28;20064;-69
2024/03/06 10:58:12;;;;;;;13.50;7.13;;;;;;;5.96;41.14;102486.97;5025191;28;20107;-70
2024/03/06 11:00:46;;;;;;;15.27;7.32;;;;;;;6.39;41.07;102484.56;5025415;28;20028;-69
2024/03/06 11:03:17;;;;;;;12.57;6.72;;;;;;;6.90;40.08;102483.81;5022470;28;20638;-69
2024/03/06 11:05:46;;;;;;;13.15;7.10;;;;;;;6.78;39.86;102489.00;5020161;28;20146;-69
2024/03/06 11:08:14;;;;;;;11.20;6.30;;;;;;;6.85;39.51;102480.34;5021628;28;20036;-70
2024/03/06 11:10:41;;;;;;;16.45;7.75;;;;;;;7.32;39.34;102492.50;5019783;28;20029;-69
2024/03/06 11:13:30;;;;;;;11.82;6.32;;;;;;;7.39;39.29;102487.31;5025614;28;20025;-70
2024/03/06 11:16:01;;;;;;;14.65;6.65;;;;;;;6.99;38.76;102492.50;5026366;28;20041;-69
2024/03/06 11:18:29;;;;;;;12.70;7.28;;;;;;;6.69;39.81;102496.78;5019809;28;20460;-69
2024/03/06 11:21:04;;;;;;;17.00;7.78;;;;;;;7.09;39.15;102494.25;5025197;28;20041;-69
2024/03/06 11:23:30;;;;;;;15.50;7.25;;;;;;;7.45;38.21;102493.38;5015043;28;20704;-70